createdAt,value
2019-02-18T00:00:27.458Z,12.55
2019-02-18T00:02:55.996Z,14.80
2019-02-18T00:05:24.656Z,12.75
2019-02-18T00:07:53.281Z,22.42
2019-02-18T00:10:21.845Z,13.43
2019-02-18T00:12:50.466Z,12.70
2019-02-18T00:15:19.366Z,12.85
2019-02-18T00:17:48.072Z,13.20
2019-02-18T00:20:16.604Z,15.38
2019-02-18T00:22:45.164Z,12.18
2019-02-18T00:25:14.221Z,12.95
2019-02-18T00:27:43.335Z,13.80
2019-02-18T00:30:11.902Z,13.53
2019-02-18T00:32:40.480Z,13.03
2019-02-18T00:35:09.480Z,12.28
2019-02-18T00:37:38.183Z,12.80
2019-02-18T00:40:09.248Z,12.07
2019-02-18T00:42:38.250Z,13.35
2019-02-18T00:45:08.573Z,12.40
2019-02-18T00:47:37.212Z,12.37
2019-02-18T00:50:07.943Z,13.88
2019-02-18T00:52:36.768Z,11.70
2019-02-18T00:55:06.905Z,16.67
2019-02-18T00:57:35.460Z,12.45
2019-02-18T01:00:08.176Z,12.40
2019-02-18T01:02:37.403Z,14.28
2019-02-18T01:05:07.575Z,10.00
2019-02-18T01:07:36.391Z,10.75
2019-02-18T01:10:06.393Z,10.48
2019-02-18T01:12:35.204Z,10.25
2019-02-18T01:15:04.137Z,8.55
2019-02-18T01:17:33.924Z,9.33
2019-02-18T01:20:02.923Z,13.13
2019-02-18T01:22:31.457Z,15.23
2019-02-18T01:25:00.345Z,16.17
2019-02-18T01:27:29.245Z,14.63
2019-02-18T01:29:58.147Z,15.15
2019-02-18T01:32:27.019Z,14.90
2019-02-18T01:34:55.569Z,14.05
2019-02-18T01:37:24.491Z,11.90
2019-02-18T01:39:53.176Z,12.75
2019-02-18T01:42:21.797Z,13.35
2019-02-18T01:44:50.281Z,11.40
2019-02-18T01:47:18.781Z,11.73
2019-02-18T01:49:47.693Z,11.88
2019-02-18T01:52:16.581Z,13.08
2019-02-18T01:54:45.037Z,13.05
2019-02-18T01:57:13.848Z,12.93
2019-02-18T01:59:42.500Z,13.25
2019-02-18T02:02:11.545Z,12.28
2019-02-18T02:04:59.599Z,13.15
2019-02-18T02:07:28.515Z,12.43
2019-02-18T02:09:57.077Z,12.37
2019-02-18T02:12:25.661Z,14.05
2019-02-18T02:14:54.259Z,11.90
2019-02-18T02:17:23.176Z,11.57
2019-02-18T02:19:52.042Z,10.85
2019-02-18T02:22:24.801Z,11.95
2019-02-18T02:24:53.738Z,12.45
2019-02-18T02:27:22.290Z,13.03
2019-02-18T02:29:51.167Z,13.18
2019-02-18T02:32:19.985Z,13.60
2019-02-18T02:34:48.520Z,12.75
2019-02-18T02:37:17.412Z,12.60
2019-02-18T02:39:46.037Z,13.68
2019-02-18T02:42:15.684Z,13.18
2019-02-18T02:44:44.194Z,14.90
2019-02-18T02:47:13.058Z,11.50
2019-02-18T02:49:41.978Z,12.00
2019-02-18T02:52:10.516Z,12.50
2019-02-18T02:54:39.343Z,15.45
2019-02-18T02:57:08.194Z,13.48
2019-02-18T02:59:36.894Z,13.08
2019-02-18T03:02:05.468Z,13.98
2019-02-18T03:04:34.401Z,13.18
2019-02-18T03:07:02.860Z,12.68
2019-02-18T03:09:31.398Z,14.60
2019-02-18T03:11:59.912Z,13.55
2019-02-18T03:14:28.724Z,13.75
2019-02-18T03:16:57.244Z,13.53
2019-02-18T03:19:25.802Z,13.22
2019-02-18T03:21:54.400Z,12.88
2019-02-18T03:24:23.345Z,13.08
2019-02-18T03:26:52.216Z,14.20
2019-02-18T03:29:38.993Z,13.03
2019-02-18T03:32:07.520Z,12.70
2019-02-18T03:34:37.724Z,11.55
2019-02-18T03:37:06.264Z,12.37
2019-02-18T03:39:34.809Z,14.23
2019-02-18T03:42:03.619Z,13.48
2019-02-18T03:44:32.478Z,13.93
2019-02-18T03:47:01.370Z,13.30
2019-02-18T03:49:30.361Z,13.35
2019-02-18T03:51:59.370Z,13.72
2019-02-18T03:54:27.912Z,12.78
2019-02-18T03:56:56.875Z,14.18
2019-02-18T03:59:25.501Z,13.72
2019-02-18T04:01:54.505Z,16.05
2019-02-18T04:04:23.426Z,12.73
2019-02-18T04:06:52.403Z,15.43
2019-02-18T04:09:21.271Z,14.33
2019-02-18T04:11:50.197Z,15.88
2019-02-18T04:14:19.261Z,12.53
2019-02-18T04:16:47.789Z,13.55
2019-02-18T04:19:16.733Z,14.83
2019-02-18T04:21:45.597Z,15.13
2019-02-18T04:24:14.503Z,14.13
2019-02-18T04:26:43.156Z,13.05
2019-02-18T04:29:12.303Z,15.18
2019-02-18T04:31:40.864Z,14.40
2019-02-18T04:34:09.380Z,14.95
2019-02-18T04:36:38.315Z,15.00
2019-02-18T04:39:07.278Z,14.53
2019-02-18T04:41:36.230Z,15.30
2019-02-18T04:44:05.378Z,16.55
2019-02-18T04:46:34.331Z,14.70
2019-02-18T04:49:03.294Z,14.87
2019-02-18T04:51:31.866Z,13.60
2019-02-18T04:54:00.654Z,14.18
2019-02-18T04:56:29.555Z,13.62
2019-02-18T04:58:58.421Z,14.15
2019-02-18T05:01:27.072Z,15.15
2019-02-18T05:03:55.860Z,13.83
2019-02-18T05:06:25.621Z,14.83
2019-02-18T05:09:04.831Z,16.05
2019-02-18T05:11:24.795Z,13.18
2019-02-18T05:14:12.912Z,14.15
2019-02-18T05:16:41.400Z,15.00
2019-02-18T05:19:10.362Z,14.20
2019-02-18T05:21:39.248Z,13.78
2019-02-18T05:24:07.849Z,14.78
2019-02-18T05:26:36.833Z,16.07
2019-02-18T05:29:05.419Z,14.87
2019-02-18T05:31:33.972Z,16.40
2019-02-18T05:34:02.921Z,15.10
2019-02-18T05:36:31.772Z,17.20
2019-02-18T05:39:00.646Z,12.80
2019-02-18T05:41:31.184Z,14.25
2019-02-18T05:43:59.968Z,14.00
2019-02-18T05:46:29.466Z,18.67
2019-02-18T05:48:58.409Z,20.37
2019-02-18T05:51:28.788Z,17.25
2019-02-18T05:53:57.146Z,15.32
2019-02-18T05:56:26.242Z,15.50
2019-02-18T05:58:55.264Z,13.93
2019-02-18T06:01:23.867Z,14.85
2019-02-18T06:03:52.890Z,16.95
2019-02-18T06:06:21.685Z,17.15
2019-02-18T06:08:50.501Z,15.08
2019-02-18T06:11:19.380Z,16.12
2019-02-18T06:13:47.948Z,16.73
2019-02-18T06:16:17.116Z,15.55
2019-02-18T06:18:46.007Z,17.25
2019-02-18T06:21:14.574Z,18.50
2019-02-18T06:23:43.438Z,18.95
2019-02-18T06:26:12.351Z,15.83
2019-02-18T06:28:41.266Z,15.43
2019-02-18T06:31:09.825Z,16.85
2019-02-18T06:33:38.715Z,15.88
2019-02-18T06:36:07.798Z,20.32
2019-02-18T06:38:36.813Z,16.60
2019-02-18T06:41:05.739Z,17.65
2019-02-18T06:43:34.273Z,17.02
2019-02-18T06:46:04.856Z,17.57
2019-02-18T06:48:35.476Z,19.75
2019-02-18T06:51:04.631Z,16.77
2019-02-18T06:53:33.341Z,16.20
2019-02-18T06:56:01.906Z,20.72
2019-02-18T06:58:38.391Z,18.10
2019-02-18T07:01:17.643Z,14.45
2019-02-18T07:04:00.006Z,18.57
2019-02-18T07:06:30.140Z,16.87
2019-02-18T07:09:03.369Z,16.35
2019-02-18T07:11:33.567Z,16.12
2019-02-18T07:14:02.352Z,22.32
2019-02-18T07:16:30.916Z,16.32
2019-02-18T07:18:59.768Z,16.20
2019-02-18T07:21:28.673Z,16.50
2019-02-18T07:23:57.693Z,15.15
2019-02-18T07:26:26.320Z,16.48
2019-02-18T07:28:54.886Z,14.47
2019-02-18T07:31:23.434Z,17.12
2019-02-18T07:33:52.320Z,17.32
2019-02-18T07:36:21.121Z,16.20
2019-02-18T07:38:49.980Z,15.08
2019-02-18T07:41:18.832Z,16.77
2019-02-18T07:43:47.680Z,17.82
2019-02-18T07:46:16.665Z,19.25
2019-02-18T07:48:45.231Z,18.55
2019-02-18T07:51:13.756Z,19.02
2019-02-18T07:53:42.585Z,18.90
2019-02-18T07:56:11.534Z,16.05
2019-02-18T07:58:40.434Z,17.50
2019-02-18T08:01:09.386Z,16.85
2019-02-18T08:03:38.272Z,16.80
2019-02-18T08:06:07.219Z,16.40
2019-02-18T08:08:35.778Z,13.70
2019-02-18T08:11:04.796Z,19.27
2019-02-18T08:13:33.759Z,15.90
2019-02-18T08:16:02.630Z,17.00
2019-02-18T08:18:31.567Z,16.50
2019-02-18T08:21:00.624Z,17.73
2019-02-18T08:23:29.604Z,19.65
2019-02-18T08:25:58.091Z,16.55
2019-02-18T08:28:26.999Z,14.25
2019-02-18T08:30:55.879Z,18.57
2019-02-18T08:33:24.785Z,16.75
2019-02-18T08:35:53.637Z,16.93
2019-02-18T08:38:22.592Z,18.42
2019-02-18T08:40:51.515Z,15.35
2019-02-18T08:43:20.449Z,15.68
2019-02-18T08:45:48.955Z,17.75
2019-02-18T08:48:17.761Z,16.07
2019-02-18T08:50:46.661Z,15.93
2019-02-18T08:53:15.547Z,15.35
2019-02-18T08:55:44.473Z,16.55
2019-02-18T08:58:13.379Z,17.73
2019-02-18T09:00:42.444Z,16.50
2019-02-18T09:03:11.061Z,16.60
2019-02-18T09:05:39.669Z,16.23
2019-02-18T09:08:08.529Z,17.60
2019-02-18T09:10:37.430Z,15.23
2019-02-18T09:13:06.301Z,16.23
2019-02-18T09:15:35.207Z,14.55
2019-02-18T09:18:04.340Z,15.72
2019-02-18T09:20:33.443Z,13.60
2019-02-18T09:23:18.806Z,17.45
2019-02-18T09:25:48.960Z,16.07
2019-02-18T09:28:17.976Z,14.07
2019-02-18T09:30:48.438Z,16.00
2019-02-18T09:33:17.042Z,16.35
2019-02-18T09:35:45.978Z,15.90
2019-02-18T09:38:24.476Z,15.30
2019-02-18T09:40:50.516Z,14.53
2019-02-18T09:43:16.240Z,16.23
2019-02-18T09:45:45.333Z,15.75
2019-02-18T09:48:14.274Z,17.15
2019-02-18T09:50:43.102Z,15.13
2019-02-18T09:53:11.646Z,17.70
2019-02-18T09:55:40.640Z,13.80
2019-02-18T09:58:09.669Z,13.85
2019-02-18T10:00:38.203Z,14.13
2019-02-18T10:03:07.080Z,13.05
2019-02-18T10:05:36.647Z,13.10
2019-02-18T10:08:06.331Z,15.60
2019-02-18T10:10:34.951Z,14.07
2019-02-18T10:13:03.799Z,10.53
2019-02-18T10:15:32.645Z,8.77
2019-02-18T10:18:01.369Z,12.83
2019-02-18T10:20:30.078Z,11.07
2019-02-18T10:22:58.615Z,11.97
2019-02-18T10:25:27.201Z,12.33
2019-02-18T10:27:55.944Z,11.23
2019-02-18T10:30:24.519Z,11.00
2019-02-18T10:32:53.214Z,10.00
2019-02-18T10:35:21.918Z,8.23
2019-02-18T10:37:55.066Z,28.87
2019-02-18T10:40:20.867Z,13.60
2019-02-18T10:42:49.483Z,14.80
2019-02-18T10:45:18.141Z,10.30
2019-02-18T10:47:46.738Z,7.23
2019-02-18T10:50:15.469Z,8.10
2019-02-18T10:52:44.112Z,8.40
2019-02-18T10:55:13.068Z,7.07
2019-02-18T10:57:41.429Z,10.10
2019-02-18T11:00:18.143Z,9.73
2019-02-18T11:02:46.770Z,8.20
2019-02-18T11:05:15.061Z,8.80
2019-02-18T11:07:43.349Z,7.17
2019-02-18T11:10:14.158Z,8.47
2019-02-18T11:12:42.828Z,13.63
2019-02-18T11:15:17.147Z,8.00
2019-02-18T11:17:46.157Z,9.03
2019-02-18T11:20:14.913Z,8.13
2019-02-18T11:22:43.177Z,8.00
2019-02-18T11:25:13.087Z,8.27
2019-02-18T11:30:19.579Z,8.20
2019-02-18T11:32:48.389Z,9.80
2019-02-18T11:35:17.253Z,9.50
2019-02-18T11:37:45.870Z,7.20
2019-02-18T11:40:18.474Z,8.10
2019-02-18T11:42:47.077Z,8.90
2019-02-18T11:45:17.282Z,6.23
2019-02-18T11:47:45.904Z,6.60
2019-02-18T11:50:15.344Z,8.73
2019-02-18T11:52:44.005Z,8.60
2019-02-18T11:55:14.511Z,8.53
2019-02-18T11:57:43.620Z,9.03
2019-02-18T12:00:20.544Z,7.53
2019-02-18T12:02:49.131Z,9.13
2019-02-18T12:05:17.758Z,9.47
2019-02-18T12:07:46.404Z,9.00
2019-02-18T12:10:15.089Z,8.70
2019-02-18T12:12:43.967Z,8.37
2019-02-18T12:15:16.204Z,10.20
2019-02-18T12:17:44.858Z,9.30
2019-02-18T12:20:32.894Z,8.87
2019-02-18T12:23:01.899Z,10.03
2019-02-18T12:25:30.732Z,8.30
2019-02-18T12:27:59.504Z,8.30
2019-02-18T12:30:28.193Z,8.83
2019-02-18T12:32:58.125Z,8.97
2019-02-18T12:35:30.896Z,8.57
2019-02-18T12:37:57.038Z,8.67
2019-02-18T12:40:44.973Z,8.90
2019-02-18T12:43:13.284Z,8.23
2019-02-18T12:45:41.999Z,8.93
2019-02-18T12:48:10.659Z,7.90
2019-02-18T12:50:39.786Z,8.53
2019-02-18T12:53:08.063Z,7.87
2019-02-18T12:55:36.892Z,8.23
2019-02-18T12:58:05.781Z,7.67
2019-02-18T13:00:37.386Z,7.70
2019-02-18T13:03:24.926Z,8.17
2019-02-18T13:05:53.534Z,7.50
2019-02-18T13:08:22.189Z,7.50
2019-02-18T13:10:50.872Z,7.80
2019-02-18T13:13:19.435Z,6.70
2019-02-18T13:15:48.662Z,7.42
2019-02-18T13:18:17.814Z,8.15
2019-02-18T13:20:46.973Z,8.00
2019-02-18T13:23:16.457Z,8.20
2019-02-18T13:25:47.585Z,7.28
2019-02-18T13:28:17.417Z,7.53
2019-02-18T13:30:46.704Z,8.55
2019-02-18T13:33:35.267Z,8.05
2019-02-18T13:36:07.574Z,8.23
2019-02-18T13:38:37.609Z,7.00
2019-02-18T13:41:06.841Z,7.87
2019-02-18T13:43:35.504Z,8.20
2019-02-18T13:46:04.779Z,7.90
2019-02-18T13:48:33.493Z,7.93
2019-02-18T13:51:02.764Z,6.95
2019-02-18T13:53:50.699Z,7.63
2019-02-18T13:56:22.055Z,7.90
2019-02-18T13:58:51.021Z,7.53
2019-02-18T14:01:20.329Z,7.08
2019-02-18T14:03:49.081Z,6.85
2019-02-18T14:06:17.769Z,8.13
2019-02-18T14:08:46.495Z,7.25
2019-02-18T14:11:15.183Z,7.42
2019-02-18T14:13:44.103Z,7.33
2019-02-18T14:16:12.839Z,6.58
2019-02-18T14:18:41.486Z,7.80
2019-02-18T14:21:10.668Z,6.95
2019-02-18T14:23:40.571Z,8.20
2019-02-18T14:26:09.194Z,8.73
2019-02-18T14:28:38.182Z,9.30
2019-02-18T14:31:07.080Z,9.30
2019-02-18T14:33:35.662Z,9.30
2019-02-18T14:36:04.234Z,7.70
2019-02-18T14:38:33.054Z,9.53
2019-02-18T14:41:01.792Z,9.27
2019-02-18T14:43:30.482Z,10.50
2019-02-18T14:45:58.741Z,9.37
2019-02-18T14:48:27.488Z,9.60
2019-02-18T14:50:56.975Z,8.87
2019-02-18T14:53:25.794Z,9.63
2019-02-18T14:55:54.113Z,10.27
2019-02-18T14:58:22.846Z,9.27
2019-02-18T15:00:51.765Z,11.30
2019-02-18T15:03:20.443Z,11.37
2019-02-18T15:05:49.070Z,9.70
2019-02-18T15:08:17.734Z,9.60
2019-02-18T15:10:46.328Z,10.10
2019-02-18T15:13:15.029Z,9.90
2019-02-18T15:15:43.898Z,13.50
2019-02-18T15:18:12.602Z,10.63
2019-02-18T15:20:41.190Z,10.00
2019-02-18T15:23:09.859Z,11.93
2019-02-18T15:25:38.572Z,8.90
2019-02-18T15:28:07.255Z,10.93
2019-02-18T15:30:35.891Z,9.73
2019-02-18T15:33:04.126Z,9.80
2019-02-18T15:35:32.723Z,10.20
2019-02-18T15:38:01.917Z,12.83
2019-02-18T15:40:30.192Z,12.63
2019-02-18T15:42:58.462Z,9.00
2019-02-18T15:45:27.182Z,9.30
2019-02-18T15:48:01.491Z,10.90
2019-02-18T15:50:26.722Z,11.87
2019-02-18T15:52:55.450Z,9.23
2019-02-18T15:55:24.211Z,13.40
2019-02-18T15:57:52.921Z,10.07
2019-02-18T16:00:24.668Z,10.50
2019-02-18T16:02:53.325Z,10.90
2019-02-18T16:05:22.079Z,13.23
2019-02-18T16:07:50.917Z,11.83
2019-02-18T16:10:19.659Z,10.20
2019-02-18T16:12:50.848Z,9.70
2019-02-18T16:15:18.782Z,11.10
2019-02-18T16:17:47.440Z,14.13
2019-02-18T16:20:16.179Z,13.80
2019-02-18T16:22:44.813Z,12.77
2019-02-18T16:25:19.578Z,11.43
2019-02-18T16:27:55.073Z,11.70
2019-02-18T16:30:19.955Z,10.07
2019-02-18T16:32:49.074Z,20.93
2019-02-18T16:35:18.277Z,9.90
2019-02-18T16:37:47.251Z,12.10
2019-02-18T16:40:17.738Z,10.43
2019-02-18T16:42:46.860Z,11.20
2019-02-18T16:45:17.299Z,13.73
2019-02-18T16:47:45.665Z,12.80
2019-02-18T16:50:14.416Z,14.63
2019-02-18T16:52:43.899Z,13.43
2019-02-18T16:55:13.993Z,14.20
2019-02-18T16:57:42.684Z,11.20
2019-02-18T17:00:19.764Z,11.33
2019-02-18T17:02:50.863Z,13.80
2019-02-18T17:05:19.543Z,12.40
2019-02-18T17:07:48.892Z,12.65
2019-02-18T17:10:17.917Z,11.12
2019-02-18T17:12:47.309Z,14.78
2019-02-18T17:15:16.276Z,11.90
2019-02-18T17:17:45.308Z,15.48
2019-02-18T17:20:14.162Z,13.72
2019-02-18T17:22:43.075Z,13.60
2019-02-18T17:25:13.284Z,15.80
2019-02-18T17:27:41.880Z,12.40
2019-02-18T17:30:15.449Z,15.68
2019-02-18T17:32:44.130Z,12.58
2019-02-18T17:35:13.956Z,13.60
2019-02-18T17:37:43.023Z,16.12
2019-02-18T17:40:12.052Z,17.00
2019-02-18T17:42:40.996Z,15.80
2019-02-18T17:45:17.276Z,17.37
2019-02-18T17:47:45.804Z,16.35
2019-02-18T17:50:14.960Z,21.87
2019-02-18T17:52:43.857Z,15.23
2019-02-18T17:55:14.499Z,14.18
2019-02-18T17:57:43.559Z,14.47
2019-02-18T18:00:21.454Z,12.82
2019-02-18T18:02:50.128Z,17.45
2019-02-18T18:05:19.146Z,15.05
2019-02-18T18:07:47.746Z,15.98
2019-02-18T18:10:17.067Z,18.32
2019-02-18T18:12:45.963Z,22.22
2019-02-18T18:15:16.981Z,15.13
2019-02-18T18:17:45.601Z,16.32
2019-02-18T18:20:14.551Z,14.25
2019-02-18T18:22:43.661Z,18.62
2019-02-18T18:25:13.333Z,14.70
2019-02-18T18:27:41.955Z,15.93
2019-02-18T18:30:11.587Z,16.57
2019-02-18T18:32:40.161Z,20.00
2019-02-18T18:35:09.784Z,17.10
2019-02-18T18:37:38.315Z,26.68
2019-02-18T18:40:10.196Z,17.37
2019-02-18T18:42:38.733Z,16.50
2019-02-18T18:45:08.826Z,20.97
2019-02-18T18:47:37.765Z,17.98
2019-02-18T18:50:10.198Z,14.87
2019-02-18T18:52:38.746Z,14.55
2019-02-18T18:55:08.043Z,22.75
2019-02-18T18:57:36.594Z,21.42
2019-02-18T19:00:06.916Z,16.90
2019-02-18T19:02:35.879Z,18.12
2019-02-18T19:05:05.762Z,18.00
2019-02-18T19:07:54.274Z,20.62
2019-02-18T19:10:23.253Z,16.25
2019-02-18T19:12:52.121Z,20.75
2019-02-18T19:15:21.031Z,19.37
2019-02-18T19:17:50.493Z,19.37
2019-02-18T19:20:19.608Z,19.55
2019-02-18T19:22:48.514Z,23.70
2019-02-18T19:25:17.659Z,24.37
2019-02-18T19:27:46.628Z,22.25
2019-02-18T19:30:26.958Z,19.87
2019-02-18T19:32:55.912Z,17.55
2019-02-18T19:35:25.318Z,21.50
2019-02-18T19:37:55.206Z,20.17
2019-02-18T19:40:24.123Z,19.62
2019-02-18T19:42:53.057Z,17.62
2019-02-18T19:45:24.171Z,18.45
2019-02-18T19:47:53.281Z,16.67
2019-02-18T19:50:23.821Z,19.77
2019-02-18T19:52:52.871Z,14.65
2019-02-18T19:55:21.946Z,16.45
2019-02-18T19:57:51.009Z,16.25
2019-02-18T20:00:20.995Z,16.90
2019-02-18T20:02:49.985Z,16.73
2019-02-18T20:05:19.014Z,15.85
2019-02-18T20:07:48.031Z,17.45
2019-02-18T20:10:16.935Z,20.00
2019-02-18T20:12:45.951Z,16.12
2019-02-18T20:15:16.133Z,17.23
2019-02-18T20:17:44.749Z,19.35
2019-02-18T20:20:14.165Z,22.95
2019-02-18T20:22:43.295Z,19.98
2019-02-18T20:25:12.472Z,21.35
2019-02-18T20:27:41.487Z,19.90
2019-02-18T20:30:14.894Z,19.48
2019-02-18T20:32:43.767Z,19.00
2019-02-18T20:35:12.971Z,16.87
2019-02-18T20:37:42.028Z,17.37
2019-02-18T20:40:11.036Z,15.80
2019-02-18T20:42:40.447Z,18.80
2019-02-18T20:45:13.983Z,16.60
2019-02-18T20:47:42.969Z,17.45
2019-02-18T20:50:30.898Z,15.70
2019-02-18T20:52:59.860Z,16.27
2019-02-18T20:55:28.769Z,17.48
2019-02-18T20:57:57.650Z,15.05
2019-02-18T21:00:26.584Z,18.30
2019-02-18T21:02:55.622Z,14.45
2019-02-18T21:05:24.716Z,14.80
2019-02-18T21:07:53.928Z,15.55
2019-02-18T21:10:24.071Z,15.10
2019-02-18T21:12:53.093Z,13.95
2019-02-18T21:15:21.993Z,12.93
2019-02-18T21:17:51.935Z,14.28
2019-02-18T21:20:20.836Z,14.03
2019-02-18T21:22:50.112Z,12.25
2019-02-18T21:25:19.087Z,16.40
2019-02-18T21:27:47.996Z,15.75
2019-02-18T21:30:17.808Z,15.00
2019-02-18T21:32:46.784Z,12.50
2019-02-18T21:35:15.695Z,13.10
2019-02-18T21:37:44.789Z,12.35
2019-02-18T21:40:13.817Z,13.70
2019-02-18T21:42:42.823Z,14.25
2019-02-18T21:45:13.587Z,12.10
2019-02-18T21:47:42.544Z,12.58
2019-02-18T21:50:12.863Z,11.40
2019-02-18T21:52:42.007Z,11.38
2019-02-18T21:55:11.839Z,14.07
2019-02-18T21:57:40.734Z,13.25
2019-02-18T22:00:21.951Z,10.70
2019-02-18T22:02:50.909Z,13.90
2019-02-18T22:05:19.850Z,10.68
2019-02-18T22:07:48.748Z,17.42
2019-02-18T22:10:18.511Z,11.20
2019-02-18T22:12:47.585Z,12.28
2019-02-18T22:15:16.912Z,12.28
2019-02-18T22:17:45.946Z,11.15
2019-02-18T22:20:15.420Z,11.45
2019-02-18T22:22:43.973Z,12.43
2019-02-18T22:25:13.594Z,11.88
2019-02-18T22:27:42.953Z,18.67
2019-02-18T22:30:14.030Z,14.18
2019-02-18T22:32:43.168Z,15.90
2019-02-18T22:35:11.800Z,14.80
2019-02-18T22:37:40.798Z,11.43
2019-02-18T22:40:13.435Z,9.70
2019-02-18T22:42:41.952Z,10.30
2019-02-18T22:45:10.867Z,12.45
2019-02-18T22:47:39.450Z,14.35
2019-02-18T22:50:12.460Z,15.80
2019-02-18T22:52:41.380Z,11.00
2019-02-18T22:55:11.477Z,10.30
2019-02-18T22:57:40.410Z,10.78
2019-02-18T23:00:13.612Z,11.75
2019-02-18T23:02:43.694Z,11.35
2019-02-18T23:05:12.522Z,11.43
2019-02-18T23:07:41.140Z,11.38
2019-02-18T23:10:09.757Z,10.28
2019-02-18T23:12:38.297Z,12.47
2019-02-18T23:15:06.925Z,10.90
2019-02-18T23:17:35.440Z,10.45
2019-02-18T23:20:04.263Z,11.40
2019-02-18T23:22:33.001Z,12.53
2019-02-18T23:25:01.584Z,11.40
2019-02-18T23:27:30.115Z,10.20
2019-02-18T23:29:59.339Z,18.12
2019-02-18T23:32:27.973Z,12.05
2019-02-18T23:34:56.531Z,12.25
2019-02-18T23:37:25.057Z,11.97
2019-02-18T23:39:53.541Z,19.12
2019-02-18T23:42:22.489Z,12.98
2019-02-18T23:44:58.849Z,11.68
2019-02-18T23:47:21.495Z,10.82
2019-02-18T23:49:50.156Z,13.10
2019-02-18T23:52:18.689Z,12.75
2019-02-18T23:54:47.597Z,11.88
2019-02-18T23:57:16.133Z,10.88
2019-02-18T23:59:44.679Z,11.18
